Thunder radar more information blitzortung!


avis per Pluja more information rain snow radar


Visita la nostra xarxa de llocs de meteo:

Template documentation
and downloads

And another site



Rain From: 15-11-2018 00:00 Until: 23:59 warning for: Rain Level: Yellow info button

Pagina Historial Weather Underground text

Diari Resum Desembre 25, 2017 Unitats:  Mètric    Imperial   Tant
« Previous Dia
SegĂźent Dia »
Diari Setmana Mensual Anual Personalitzada
  Maxima: Minima: Media:
Temperatura: -17.8 °C -16.2 °C -13.6 °C
Punt de rosada: -17.8 °C -18.2 °C -16.3 °C
Humitat: Humidity % 66 % 72 %
Wind Speed: 0 km/h 0 km/h 3.4 km/h
RĂ fegues de vent: 0 km/h - -
Vent:- - SE
Pression baro: 0 hPa 34496.6 hPa -
Precipitacions: 0 mm    
Historical Graphs
 
 
Dades de taula per Desembre 25, 2017
Temps Temperatura Punt de rosada Pression baro Vent Wind Speed RĂ fegues de vent Humitat Rainfall Rate (Hourly)
-17.8 °C -17.8 °C 0 hPa Calm     Humidity % 0 mm
00:04 -15.1 °C -17.6 °C 34808.1 hPa NE 3.1 km/h 3.7 km/h 72 % 0 mm
00:05 -15.9 °C -17.9 °C 34740.4 hPa Calm     77 % 0 mm
00:06 -15.1 °C -17.6 °C 34808.1 hPa NE 3.1 km/h   72 % 0 mm
00:07 -15.1 °C -17.7 °C 34808.1 hPa Calm     72 % 0 mm
00:11 -15.1 °C -17.7 °C 34808.1 hPa Calm     72 % 0 mm
00:14 -15.2 °C -17.7 °C 34808.1 hPa Calm     72 % 0 mm
00:15 -15.9 °C -17.9 °C 34740.4 hPa Calm     77 % 0 mm
00:17 -15.2 °C -17.7 °C 34808.1 hPa Calm     72 % 0 mm
00:20 -15.2 °C -17.8 °C 34808.1 hPa Calm     72 % 0 mm
00:25 -15.2 °C -17.6 °C 34808.1 hPa Calm     73 % 0 mm
00:30 -15.2 °C -17.6 °C 34808.1 hPa Calm     73 % 0 mm
00:45 -15.7 °C -17.7 °C 34740.4 hPa Calm   2.6 km/h 77 % 0 mm
01:05 -15.6 °C -17.7 °C 34740.4 hPa NE 2.6 km/h 2.6 km/h 77 % 0 mm
01:15 -15.7 °C -17.7 °C 34740.4 hPa Calm   5.1 km/h 77 % 0 mm
01:35 -15.9 °C -18.1 °C 34740.4 hPa Calm   5.1 km/h 76 % 0 mm
01:55 -16.1 °C -18.2 °C 34740.4 hPa Calm   2.6 km/h 76 % 0 mm
02:05 -16.1 °C -18.2 °C 34740.4 hPa Calm     77 % 0 mm
02:15 -16.2 °C -18.2 °C 34740.4 hPa South 2.6 km/h 2.6 km/h 77 % 0 mm
02:25 -16.2 °C -18.2 °C 34740.4 hPa ENE 2.6 km/h 5.1 km/h 77 % 0 mm
02:35 -16.2 °C -18.2 °C 34740.4 hPa NE 2.6 km/h 2.6 km/h 77 % 0 mm
02:45 -16.2 °C -18.2 °C 34740.4 hPa Calm   2.6 km/h 77 % 0 mm
02:55 -16.1 °C -18.2 °C 34740.4 hPa ENE 2.6 km/h 2.6 km/h 77 % 0 mm
03:05 -16.1 °C -18.1 °C 34740.4 hPa Calm   5.1 km/h 77 % 0 mm
03:15 -16.1 °C -18.1 °C 34740.4 hPa Calm     77 % 0 mm
03:25 -16.1 °C -18.1 °C 34740.4 hPa SW 2.6 km/h 5.1 km/h 77 % 0 mm
03:35 -16 °C -18 °C 34740.4 hPa SW 2.6 km/h 5.1 km/h 77 % 0 mm
03:45 -16 °C -18 °C 34740.4 hPa SW 2.6 km/h 5.1 km/h 77 % 0 mm
03:55 -15.9 °C -17.9 °C 34740.4 hPa SW 2.6 km/h 7.7 km/h 77 % 0 mm
04:05 -15.8 °C -17.8 °C 34740.4 hPa Calm   5.1 km/h 77 % 0 mm
04:15 -15.7 °C -17.6 °C 34740.4 hPa Calm   5.1 km/h 78 % 0 mm
04:20 -15.7 °C -17.6 °C 34740.4 hPa Calm   2.6 km/h 78 % 0 mm
04:30 -15.6 °C -17.5 °C 34740.4 hPa ENE 2.6 km/h 5.1 km/h 78 % 0 mm
04:40 -15.4 °C -17.5 °C 34774.2 hPa Calm   7.7 km/h 77 % 0 mm
10:47 -15.4 °C -17.4 °C 34774.2 hPa East 6 km/h 6 km/h 77 % 0 mm
10:49 -15.4 °C -17.5 °C 34774.2 hPa SW 5.6 km/h   77 % 0 mm
10:54 -15.4 °C -17.4 °C 34740.4 hPa ENE 3.1 km/h 3.1 km/h 77 % 0 mm
10:56 -15.4 °C -17.4 °C 34740.4 hPa NE 6 km/h 6 km/h 77 % 0 mm
11:00 -15.3 °C -17.4 °C 34740.4 hPa SSE 3.1 km/h 3.1 km/h 77 % 0 mm
11:01 -15.3 °C -17.3 °C 34740.4 hPa ESE 4.2 km/h 4.2 km/h 77 % 0 mm
11:03 -15.3 °C -17.3 °C 34740.4 hPa SSE 6 km/h   77 % 0 mm
11:08 -15.2 °C -17.3 °C 34740.4 hPa SW 6.3 km/h 6.3 km/h 77 % 0 mm
11:09 -15.2 °C -17.3 °C 34774.2 hPa SW 6 km/h 6 km/h 77 % 0 mm
11:14 -15.2 °C -17.3 °C 34774.2 hPa SW 4.2 km/h 4.2 km/h 76 % 0 mm
11:19 -15.1 °C -17.2 °C 34774.2 hPa SW 5.1 km/h   77 % 0 mm
11:21 -15.1 °C -17.2 °C 34774.2 hPa SW 6 km/h 6 km/h 77 % 0 mm
11:26 -15.1 °C -17.2 °C 34740.4 hPa SW 3.1 km/h   77 % 0 mm
11:27 -15.1 °C -17.2 °C 34740.4 hPa SW 6 km/h 6 km/h 77 % 0 mm
11:29 -15.1 °C -17.2 °C 34740.4 hPa SW 3.1 km/h   77 % 0 mm
11:34 -15.1 °C -17.2 °C 34740.4 hPa North 6 km/h   76 % 0 mm
11:35 -15.1 °C -17.2 °C 34740.4 hPa NE 5.1 km/h   76 % 0 mm
11:40 -15 °C -17.2 °C 34740.4 hPa WNW 6 km/h 6 km/h 76 % 0 mm
11:41 -14.9 °C -17.1 °C 34740.4 hPa WNW 3.1 km/h 3.1 km/h 76 % 0 mm
11:45 -14.9 °C -16.9 °C 34740.4 hPa NNE 7.6 km/h 7.6 km/h 77 % 0 mm
11:50 -14.8 °C -17 °C 34740.4 hPa ENE 6 km/h   76 % 0 mm
11:55 -14.8 °C -16.9 °C 34703.1 hPa NNW 6 km/h 6 km/h 76 % 0 mm
11:56 -14.8 °C -16.9 °C 34703.1 hPa NNW 6 km/h 6 km/h 76 % 0 mm
12:01 -14.7 °C -16.9 °C 34703.1 hPa NNE 9 km/h 9 km/h 76 % 0 mm
12:06 -14.7 °C -16.8 °C 34703.1 hPa NE 9 km/h 9 km/h 76 % 0 mm
12:07 -14.6 °C -16.8 °C 34703.1 hPa NE 8 km/h 8 km/h 76 % 0 mm
12:12 -14.6 °C -16.8 °C 34740.4 hPa ENE 6 km/h 6 km/h 76 % 0 mm
12:13 -14.6 °C -16.7 °C 34740.4 hPa NE 6 km/h 6 km/h 76 % 0 mm
12:18 -14.4 °C -16.6 °C 34740.4 hPa NNE 6 km/h 6 km/h 76 % 0 mm
12:19 -14.4 °C -16.6 °C 34740.4 hPa NNE 6 km/h 6 km/h 76 % 0 mm
12:21 -14.4 °C -16.6 °C 34740.4 hPa NNE 3.7 km/h   76 % 0 mm
12:24 -14.3 °C -16.6 °C 34703.1 hPa West 6 km/h   75 % 0 mm
12:29 -14.2 °C -16.4 °C 34703.1 hPa NE 9 km/h 9 km/h 75 % 0 mm
12:30 -14.2 °C -16.4 °C 34703.1 hPa NNE 6 km/h 6 km/h 75 % 0 mm
12:35 -14.1 °C -16.3 °C 34703.1 hPa NNE 6 km/h 6 km/h 75 % 0 mm
12:36 -14 °C -16.3 °C 34703.1 hPa WNW 3.7 km/h 3.7 km/h 75 % 0 mm
12:38 -13.9 °C -16.2 °C 34703.1 hPa Calm     75 % 0 mm
12:43 -13.7 °C -16 °C 34703.1 hPa NNE 6 km/h   75 % 0 mm
12:45 -13.7 °C -15.9 °C 34703.1 hPa NNE 6 km/h 6 km/h 75 % 0 mm
12:50 -13.7 °C -16.1 °C 34703.1 hPa East 9 km/h 9 km/h 74 % 0 mm
12:55 -13.6 °C -16.2 °C 34669.3 hPa ESE 6 km/h   73 % 0 mm
13:00 -13.4 °C -15.9 °C 34669.3 hPa SW 3.1 km/h 3.1 km/h 73 % 0 mm
13:01 -13.4 °C -15.9 °C 34669.3 hPa SW 3.1 km/h 3.1 km/h 73 % 0 mm
13:02 -13.3 °C -15.9 °C 34669.3 hPa SW 3.7 km/h   73 % 0 mm
13:06 -13.3 °C -15.8 °C 34669.3 hPa WSW 4.2 km/h   73 % 0 mm
13:11 -13.2 °C -15.7 °C 34669.3 hPa ESE 4.2 km/h   73 % 0 mm
13:16 -13.1 °C -15.7 °C 34669.3 hPa ESE 6 km/h 6 km/h 72 % 0 mm
13:17 -13.1 °C -15.7 °C 34669.3 hPa SSE 3.1 km/h 3.1 km/h 72 % 0 mm
13:20 -13 °C -15.7 °C 34669.3 hPa ENE 3.1 km/h 3.1 km/h 72 % 0 mm
13:22 -12.9 °C -15.6 °C 34669.3 hPa SW 3.1 km/h   72 % 0 mm
13:27 -12.8 °C -15.4 °C 34669.3 hPa SW 6 km/h 6 km/h 72 % 0 mm
13:29 -12.8 °C -15.4 °C 34669.3 hPa SW 6 km/h 6 km/h 72 % 0 mm
13:34 -12.7 °C -15.4 °C 34669.3 hPa WSW 3.1 km/h   71 % 0 mm
13:39 -12.7 °C -15.4 °C 34635.4 hPa East 3.1 km/h 3.1 km/h 71 % 0 mm
13:42 -12.6 °C -15.4 °C 34635.4 hPa ESE 5.1 km/h   71 % 0 mm
13:45 -12.6 °C -15.3 °C 34635.4 hPa ESE 3.7 km/h   71 % 0 mm
13:50 -12.6 °C -15.5 °C 34635.4 hPa NE 3.1 km/h 3.7 km/h 70 % 0 mm
13:55 -12.6 °C -15.4 °C 34635.4 hPa NNE 6 km/h 6 km/h 70 % 0 mm
13:56 -12.6 °C -15.4 °C 34635.4 hPa NNE 6 km/h 6 km/h 70 % 0 mm
14:01 -12.5 °C -15.4 °C 34635.4 hPa NNE 3.1 km/h 3.1 km/h 70 % 0 mm
14:07 -12.4 °C -15.3 °C 34635.4 hPa NNE 3.1 km/h 5.1 km/h 70 % 0 mm
14:12 -12.3 °C -15.2 °C 34635.4 hPa ENE 6 km/h 6 km/h 70 % 0 mm
14:17 -12.2 °C -15.2 °C 34635.4 hPa ENE 6 km/h 6 km/h 69 % 0 mm
14:18 -12.2 °C -15.2 °C 34635.4 hPa ENE 6 km/h 6 km/h 69 % 0 mm
14:23 -12.2 °C -15.2 °C 34635.4 hPa ENE 5.1 km/h   69 % 0 mm
14:28 -12.1 °C -15.2 °C 34601.5 hPa North 3.1 km/h   68 % 0 mm
14:31 -12.1 °C -15.2 °C 34601.5 hPa NE 4.2 km/h 4.2 km/h 68 % 0 mm
14:35 -12.1 °C -15.2 °C 34601.5 hPa ENE 6 km/h 6 km/h 68 % 0 mm
14:38 -12.1 °C -15.4 °C 34601.5 hPa NNE 6.3 km/h 6.3 km/h 67 % 0 mm
14:40 -12.1 °C -15.4 °C 34601.5 hPa ENE 6 km/h 6 km/h 67 % 0 mm
14:45 -12.1 °C -15.4 °C 34601.5 hPa East 6 km/h 6 km/h 67 % 0 mm
14:46 -12.1 °C -15.4 °C 34601.5 hPa NE 9 km/h 9 km/h 67 % 0 mm
14:51 -12.1 °C -15.4 °C 34601.5 hPa NNE 9 km/h 9 km/h 67 % 0 mm
14:56 -12.1 °C -15.4 °C 34601.5 hPa NE 6 km/h 6 km/h 67 % 0 mm
14:57 -12.1 °C -15.4 °C 34601.5 hPa ENE 6 km/h 6 km/h 67 % 0 mm
14:58 -12.1 °C -15.4 °C 34601.5 hPa East 3.7 km/h 3.7 km/h 67 % 0 mm
15:06 -12.1 °C -15.4 °C 34601.5 hPa NE 6 km/h 6 km/h 67 % 0 mm
15:09 -12.1 °C -15.4 °C 34601.5 hPa ENE 6 km/h 6 km/h 67 % 0 mm
15:12 -12.1 °C -15.4 °C 34601.5 hPa ENE 6 km/h 6 km/h 67 % 0 mm
15:15 -12.1 °C -15.4 °C 34601.5 hPa NE 6 km/h 6 km/h 67 % 0 mm
15:17 -12.1 °C -15.2 °C 34601.5 hPa NE 4.2 km/h 4.2 km/h 68 % 0 mm
15:21 -12.1 °C -15.3 °C 34601.5 hPa NE 6 km/h 6 km/h 67 % 0 mm
15:23 -12 °C -15.2 °C 34601.5 hPa NE 6 km/h   68 % 0 mm
15:28 -12 °C -15.2 °C 34601.5 hPa Calm     68 % 0 mm
15:29 -11.9 °C -15.2 °C 34601.5 hPa NE 3.1 km/h 3.1 km/h 67 % 0 mm
15:34 -11.9 °C -15.2 °C 34601.5 hPa NE 3.7 km/h 3.7 km/h 67 % 0 mm
15:35 -11.9 °C -15.2 °C 34601.5 hPa NE 3.7 km/h 3.7 km/h 67 % 0 mm
15:40 -11.9 °C -15.2 °C 34601.5 hPa ENE 6 km/h 6 km/h 67 % 0 mm
15:45 -11.9 °C -15.2 °C 34601.5 hPa ENE 3.7 km/h 3.7 km/h 67 % 0 mm
15:47 -11.9 °C -15.2 °C 34601.5 hPa ENE 6 km/h 6 km/h 67 % 0 mm
15:51 -11.9 °C -15.2 °C 34601.5 hPa ENE 5.1 km/h   67 % 0 mm
15:56 -11.9 °C -15.2 °C 34601.5 hPa ENE 4.2 km/h 4.2 km/h 67 % 0 mm
15:58 -11.9 °C -15.2 °C 34601.5 hPa ENE 3.1 km/h 3.7 km/h 67 % 0 mm
16:03 -12 °C -15.4 °C 34601.5 hPa East 3.1 km/h 3.1 km/h 66 % 0 mm
16:08 -12 °C -15.4 °C 34601.5 hPa East 4.2 km/h 4.2 km/h 66 % 0 mm
16:09 -12 °C -15.4 °C 34601.5 hPa East 3.7 km/h 3.7 km/h 66 % 0 mm
16:14 -12 °C -15.4 °C 34601.5 hPa NE 6 km/h 6 km/h 66 % 0 mm
16:15 -12 °C -15.4 °C 34601.5 hPa NE 3.1 km/h 3.1 km/h 66 % 0 mm
16:20 -12 °C -15.4 °C 34601.5 hPa Calm     66 % 0 mm
16:24 -12 °C -15.4 °C 34567.7 hPa Calm     66 % 0 mm
16:27 -12 °C -15.4 °C 34567.7 hPa Calm     66 % 0 mm
16:32 -12 °C -15.4 °C 34567.7 hPa Calm     66 % 0 mm
16:37 -12 °C -15.4 °C 34567.7 hPa Calm     66 % 0 mm
16:38 -12 °C -15.4 °C 34567.7 hPa Calm     66 % 0 mm
16:43 -11.9 °C -15.3 °C 34567.7 hPa Calm     66 % 0 mm
16:48 -11.9 °C -15.3 °C 34567.7 hPa NE 5.1 km/h 5.1 km/h 66 % 0 mm
16:49 -11.9 °C -15.3 °C 34567.7 hPa NE 4.2 km/h 4.2 km/h 66 % 0 mm
16:50 -12 °C -15.4 °C 34567.7 hPa NE 6 km/h 6 km/h 66 % 0 mm
16:55 -11.9 °C -15.2 °C 34567.7 hPa NE 3.1 km/h   67 % 0 mm
17:00 -11.9 °C -15.2 °C 34567.7 hPa Calm     67 % 0 mm
17:02 -11.9 °C -15.2 °C 34567.7 hPa Calm   3.1 km/h 67 % 0 mm
17:07 -11.9 °C -15.3 °C 34567.7 hPa Calm     66 % 0 mm
17:08 -11.9 °C -15.3 °C 34567.7 hPa Calm     66 % 0 mm
17:13 -11.8 °C -15.1 °C 34567.7 hPa Calm     67 % 0 mm
17:16 -11.9 °C -15.3 °C 34567.7 hPa NE 3.1 km/h 3.1 km/h 66 % 0 mm
17:17 -11.9 °C -15.3 °C 34567.7 hPa NE 3.1 km/h 3.1 km/h 66 % 0 mm
17:22 -12 °C -15.2 °C 34567.7 hPa Calm     67 % 0 mm
17:24 -12.1 °C -15.3 °C 34567.7 hPa NE 3.1 km/h   67 % 0 mm
17:29 -12.2 °C -15.6 °C 34567.7 hPa East 11.9 km/h 11.9 km/h 66 % 0 mm
17:33 -12.3 °C -15.7 °C 34567.7 hPa East 9 km/h 9 km/h 66 % 0 mm
17:34 -12.3 °C -15.7 °C 34567.7 hPa ESE 11.9 km/h 11.9 km/h 66 % 0 mm
17:39 -12.5 °C -15.9 °C 34533.8 hPa ENE 6 km/h 6 km/h 66 % 0 mm
17:40 -12.6 °C -15.9 °C 34533.8 hPa NE 5.6 km/h 5.6 km/h 66 % 0 mm
17:45 -12.6 °C -15.9 °C 34533.8 hPa NE 6 km/h 6 km/h 66 % 0 mm
17:46 -12.6 °C -15.9 °C 34533.8 hPa NE 6 km/h 6 km/h 66 % 0 mm
17:49 -12.7 °C -15.9 °C 34533.8 hPa NE 3.1 km/h   67 % 0 mm
17:51 -12.7 °C -15.9 °C 34533.8 hPa Calm     67 % 0 mm
17:56 -12.8 °C -16 °C 34533.8 hPa Calm     67 % 0 mm
18:01 -12.8 °C -16.1 °C 34533.8 hPa Calm     67 % 0 mm
18:03 -12.8 °C -16.1 °C 34533.8 hPa NE 3.7 km/h   67 % 0 mm
18:04 -12.9 °C -16.1 °C 34533.8 hPa NE 3.7 km/h 3.7 km/h 67 % 0 mm
18:08 -12.9 °C -16.1 °C 34533.8 hPa NE 3.1 km/h   68 % 0 mm
18:13 -13.1 °C -16.2 °C 34533.8 hPa Calm     68 % 0 mm
18:18 -13.1 °C -16.2 °C 34533.8 hPa NW 3.1 km/h   68 % 0 mm
18:20 -13.1 °C -16.2 °C 34533.8 hPa Calm     68 % 0 mm
18:24 -13.3 °C -16.3 °C 34533.8 hPa NW 6 km/h 6 km/h 68 % 0 mm
18:29 -13.4 °C -16.3 °C 34533.8 hPa WSW 6.3 km/h 6.3 km/h 69 % 0 mm
18:31 -13.4 °C -16.3 °C 34533.8 hPa WSW 6 km/h 6 km/h 69 % 0 mm
18:32 -13.4 °C -16.3 °C 34533.8 hPa WSW 6 km/h 6 km/h 69 % 0 mm
18:36 -13.4 °C -16.3 °C 34533.8 hPa WSW 6 km/h 6 km/h 69 % 0 mm
18:40 -13.4 °C -16.2 °C 34533.8 hPa SW 6 km/h 6 km/h 70 % 0 mm
18:44 -13.4 °C -16.3 °C 34533.8 hPa SW 6 km/h 6 km/h 70 % 0 mm
18:45 -13.5 °C -16.3 °C 34533.8 hPa SW 6.3 km/h 6.3 km/h 70 % 0 mm
18:47 -13.5 °C -16.3 °C 34533.8 hPa SW 4.2 km/h 4.2 km/h 70 % 0 mm
18:51 -13.5 °C -16.2 °C 34533.8 hPa WSW 6 km/h 6 km/h 71 % 0 mm
18:56 -13.6 °C -16.3 °C 34533.8 hPa Calm     71 % 0 mm
19:01 -13.6 °C -16.2 °C 34533.8 hPa Calm     72 % 0 mm
19:02 -13.6 °C -16.2 °C 34533.8 hPa Calm     72 % 0 mm
19:07 -13.5 °C -16.2 °C 34533.8 hPa Calm     72 % 0 mm
19:09 -13.5 °C -16.2 °C 34533.8 hPa Calm     72 % 0 mm
19:11 -13.5 °C -16.2 °C 34533.8 hPa Calm     72 % 0 mm
19:16 -13.5 °C -16.2 °C 34533.8 hPa WSW 3.1 km/h 3.1 km/h 72 % 0 mm
19:17 -13.5 °C -16.2 °C 34533.8 hPa WSW 3.1 km/h   72 % 0 mm
19:22 -13.5 °C -16.2 °C 34533.8 hPa Calm     72 % 0 mm
19:23 -13.5 °C -16.2 °C 34533.8 hPa Calm     72 % 0 mm
19:25 -13.5 °C -16.2 °C 34533.8 hPa Calm     72 % 0 mm
19:30 -13.5 °C -16.2 °C 34533.8 hPa Calm     72 % 0 mm
19:33 -13.5 °C -16.2 °C 34533.8 hPa WSW 3.1 km/h   72 % 0 mm
19:36 -13.5 °C -16.2 °C 34533.8 hPa WSW 3.1 km/h   72 % 0 mm
19:41 -13.4 °C -16.1 °C 34533.8 hPa Calm     72 % 0 mm
19:44 -13.4 °C -15.9 °C 34533.8 hPa Calm     73 % 0 mm
19:45 -13.4 °C -15.9 °C 34533.8 hPa Calm     73 % 0 mm
19:50 -13.4 °C -15.9 °C 34533.8 hPa Calm     73 % 0 mm
19:55 -13.3 °C -15.9 °C 34533.8 hPa Calm     73 % 0 mm
19:56 -13.3 °C -15.9 °C 34533.8 hPa Calm     73 % 0 mm
20:01 -13.4 °C -15.9 °C 34533.8 hPa Calm     73 % 0 mm
20:03 -13.4 °C -15.9 °C 34533.8 hPa NNE 4.2 km/h   73 % 0 mm
20:08 -13.5 °C -16 °C 34533.8 hPa NE 6 km/h 6 km/h 73 % 0 mm
20:10 -13.6 °C -16.1 °C 34533.8 hPa NE 6 km/h 6 km/h 73 % 0 mm
20:13 -13.6 °C -16.2 °C 34533.8 hPa Calm     73 % 0 mm
20:16 -13.6 °C -16.2 °C 34533.8 hPa Calm     73 % 0 mm
20:21 -13.6 °C -16.2 °C 34533.8 hPa Calm     73 % 0 mm
20:24 -13.6 °C -16.1 °C 34533.8 hPa WNW 5.6 km/h 5.6 km/h 73 % 0 mm
20:29 -13.6 °C -16.1 °C 34533.8 hPa Calm     73 % 0 mm
20:30 -13.6 °C -16.1 °C 34533.8 hPa Calm     73 % 0 mm
20:31 -13.6 °C -16.1 °C 34533.8 hPa Calm     73 % 0 mm
20:36 -13.6 °C -16.1 °C 34533.8 hPa Calm     73 % 0 mm
20:40 -13.7 °C -16.2 °C 34533.8 hPa WNW 6 km/h 6 km/h 73 % 0 mm
20:41 -13.7 °C -16.2 °C 34533.8 hPa WNW 6 km/h   73 % 0 mm
20:46 -13.7 °C -16.2 °C 34533.8 hPa NE 3.7 km/h 3.7 km/h 73 % 0 mm
20:49 -13.7 °C -16.2 °C 34533.8 hPa NE 6 km/h 6 km/h 73 % 0 mm
20:54 -13.8 °C -16.3 °C 34533.8 hPa Calm     73 % 0 mm
20:57 -13.8 °C -16.3 °C 34533.8 hPa Calm     73 % 0 mm
20:59 -13.8 °C -16.3 °C 34533.8 hPa SW 6.3 km/h 6.3 km/h 73 % 0 mm
21:04 -13.8 °C -16.3 °C 34533.8 hPa WNW 3.1 km/h   73 % 0 mm
21:05 -13.8 °C -16.3 °C 34533.8 hPa Calm     73 % 0 mm
21:06 -13.8 °C -16.3 °C 34533.8 hPa NNE 3.1 km/h 3.1 km/h 73 % 0 mm
21:10 -13.8 °C -16.2 °C 34533.8 hPa SW 5.1 km/h 5.1 km/h 74 % 0 mm
21:14 -13.8 °C -16.3 °C 34533.8 hPa WSW 5.6 km/h 5.6 km/h 73 % 0 mm
21:17 -13.8 °C -16.3 °C 34533.8 hPa SW 6 km/h 6 km/h 73 % 0 mm
21:21 -13.8 °C -16.2 °C 34533.8 hPa Calm     74 % 0 mm
21:22 -13.8 °C -16.2 °C 34533.8 hPa Calm     74 % 0 mm
21:24 -13.8 °C -16.2 °C 34533.8 hPa NNW 4.2 km/h   74 % 0 mm
21:28 -13.8 °C -16.2 °C 34533.8 hPa WSW 6 km/h 6 km/h 74 % 0 mm
21:29 -13.8 °C -16.2 °C 34533.8 hPa WSW 6 km/h 6 km/h 74 % 0 mm
21:34 -13.7 °C -16.2 °C 34533.8 hPa NW 6 km/h 6 km/h 73 % 0 mm
21:35 -13.7 °C -16.2 °C 34533.8 hPa NW 6.3 km/h 6.3 km/h 73 % 0 mm
21:39 -13.6 °C -16 °C 34567.7 hPa West 6 km/h 6 km/h 74 % 0 mm
21:40 -13.6 °C -15.9 °C 34567.7 hPa West 6 km/h 6 km/h 74 % 0 mm
21:45 -13.5 °C -15.9 °C 34567.7 hPa Calm     74 % 0 mm
21:47 -13.4 °C -15.9 °C 34567.7 hPa Calm     74 % 0 mm
21:52 -13.4 °C -15.9 °C 34567.7 hPa SW 3.1 km/h 3.1 km/h 74 % 0 mm
21:54 -13.4 °C -15.9 °C 34533.8 hPa Calm     74 % 0 mm
21:56 -13.4 °C -15.9 °C 34533.8 hPa Calm     74 % 0 mm
21:59 -13.4 °C -15.9 °C 34533.8 hPa NNE 4.2 km/h 4.2 km/h 74 % 0 mm
22:04 -13.4 °C -15.9 °C 34533.8 hPa NNE 3.1 km/h 3.1 km/h 74 % 0 mm
22:05 -13.4 °C -15.9 °C 34533.8 hPa NNE 3.1 km/h 3.1 km/h 74 % 0 mm
22:10 -13.5 °C -15.9 °C 34533.8 hPa Calm     74 % 0 mm
22:15 -13.4 °C -15.9 °C 34533.8 hPa Calm     74 % 0 mm
22:16 -13.4 °C -15.9 °C 34533.8 hPa Calm     74 % 0 mm
22:21 -13.5 °C -15.9 °C 34533.8 hPa Calm     74 % 0 mm
22:22 -13.5 °C -15.9 °C 34533.8 hPa Calm     74 % 0 mm
22:27 -13.5 °C -15.9 °C 34533.8 hPa NNE 3.1 km/h   74 % 0 mm
22:28 -13.5 °C -15.9 °C 34533.8 hPa Calm     74 % 0 mm
22:31 -13.5 °C -15.9 °C 34533.8 hPa Calm     74 % 0 mm
22:35 -13.6 °C -15.9 °C 34533.8 hPa Calm     74 % 0 mm
22:38 -13.6 °C -16 °C 34533.8 hPa Calm     74 % 0 mm
22:41 -13.7 °C -16.1 °C 34533.8 hPa NNE 3.7 km/h 3.7 km/h 74 % 0 mm
22:46 -13.8 °C -16.2 °C 34533.8 hPa NNE 3.1 km/h 3.1 km/h 74 % 0 mm
22:48 -13.8 °C -16.2 °C 34533.8 hPa Calm     74 % 0 mm
22:50 -13.8 °C -16.2 °C 34533.8 hPa SW 6.3 km/h 6.3 km/h 74 % 0 mm
22:53 -13.8 °C -16.2 °C 34533.8 hPa SW 3.1 km/h 3.1 km/h 74 % 0 mm
22:58 -13.9 °C -16.3 °C 34533.8 hPa East 6 km/h 6 km/h 74 % 0 mm
23:00 -13.9 °C -16.3 °C 34533.8 hPa East 6 km/h 6 km/h 74 % 0 mm
23:05 -13.9 °C -16.3 °C 34533.8 hPa Calm     74 % 0 mm
23:08 -14 °C -16.4 °C 34533.8 hPa Calm     74 % 0 mm
23:09 -14.1 °C -16.4 °C 34533.8 hPa NW 4.2 km/h   74 % 0 mm
23:14 -14.1 °C -16.5 °C 34533.8 hPa West 5.1 km/h 5.1 km/h 74 % 0 mm
23:19 -14.2 °C -16.4 °C 34533.8 hPa WSW 5.1 km/h 5.1 km/h 75 % 0 mm
23:20 -14.2 °C -16.4 °C 34533.8 hPa WSW 5.1 km/h 5.1 km/h 75 % 0 mm
23:25 -14.2 °C -16.5 °C 34533.8 hPa WSW 6 km/h 6 km/h 75 % 0 mm
23:27 -14.2 °C -16.5 °C 34533.8 hPa WSW 6 km/h 6 km/h 75 % 0 mm
23:30 -14.3 °C -16.6 °C 34533.8 hPa WSW 3.1 km/h   75 % 0 mm
23:32 -14.3 °C -16.6 °C 34533.8 hPa WSW 4.2 km/h 4.2 km/h 75 % 0 mm
23:37 -14.4 °C -16.7 °C 34533.8 hPa WSW 3.1 km/h 3.1 km/h 75 % 0 mm
23:43 -14.4 °C -16.6 °C 34533.8 hPa WSW 3.1 km/h 3.1 km/h 76 % 0 mm
23:44 -14.4 °C -16.6 °C 34533.8 hPa WSW 3.1 km/h 3.1 km/h 76 % 0 mm
23:49 -14.4 °C -16.6 °C 34533.8 hPa WSW 3.1 km/h 3.1 km/h 76 % 0 mm
23:50 -14.4 °C -16.6 °C 34533.8 hPa WSW 2.6 km/h 2.6 km/h 76 % 0 mm
23:55 -14.4 °C -16.6 °C 34496.6 hPa Calm     76 % 0 mm
Meteo Sesrovires
Elogis d' Weather Underground - 2.5 mb

Guio original per  Jim McMurry - jmcmurry@mwt.net Adaptat per a la plantilla per  Wim van der Kuil - Leuven-Template.eu

Trobareu la nostra informacio del temps tambe a:

Weather Underground

AWEKAS